sensor_id;sensor_type;location;lat;lon;timestamp;temperature;humidity
15044;DHT22;7619;48.562;8.910;2022-08-24T00:00:23;15.90;99.90
15044;DHT22;7619;48.562;8.910;2022-08-24T00:02:52;16.00;99.90
15044;DHT22;7619;48.562;8.910;2022-08-24T00:10:19;15.80;99.90
15044;DHT22;7619;48.562;8.910;2022-08-24T00:12:48;15.80;99.90
15044;DHT22;7619;48.562;8.910;2022-08-24T00:15:17;15.80;99.90
15044;DHT22;7619;48.562;8.910;2022-08-24T00:22:43;15.60;99.90
15044;DHT22;7619;48.562;8.910;2022-08-24T00:25:12;15.60;99.90
15044;DHT22;7619;48.562;8.910;2022-08-24T00:30:14;16.80;99.90
15044;DHT22;7619;48.562;8.910;2022-08-24T00:32:44;15.70;99.90
15044;DHT22;7619;48.562;8.910;2022-08-24T00:35:15;15.60;99.90
15044;DHT22;7619;48.562;8.910;2022-08-24T00:37:47;15.60;99.90
15044;DHT22;7619;48.562;8.910;2022-08-24T00:40:20;15.60;99.90
15044;DHT22;7619;48.562;8.910;2022-08-24T00:45:18;15.40;99.90
15044;DHT22;7619;48.562;8.910;2022-08-24T00:47:50;15.30;99.90
15044;DHT22;7619;48.562;8.910;2022-08-24T00:50:22;15.30;99.90
15044;DHT22;7619;48.562;8.910;2022-08-24T00:52:54;15.20;99.90
15044;DHT22;7619;48.562;8.910;2022-08-24T00:55:27;15.20;99.90
15044;DHT22;7619;48.562;8.910;2022-08-24T01:00:31;15.10;99.90
15044;DHT22;7619;48.562;8.910;2022-08-24T01:03:02;15.20;99.90
15044;DHT22;7619;48.562;8.910;2022-08-24T01:05:32;15.10;99.90
15044;DHT22;7619;48.562;8.910;2022-08-24T01:08:03;15.10;99.90
15044;DHT22;7619;48.562;8.910;2022-08-24T01:10:36;15.10;99.90
15044;DHT22;7619;48.562;8.910;2022-08-24T01:20:51;15.00;99.90
15044;DHT22;7619;48.562;8.910;2022-08-24T01:23:33;15.00;1.00
15044;DHT22;7619;48.562;8.910;2022-08-24T01:26:05;14.90;1.00
15044;DHT22;7619;48.562;8.910;2022-08-24T01:28:34;14.90;1.00
15044;DHT22;7619;48.562;8.910;2022-08-24T01:31:06;14.90;1.00
15044;DHT22;7619;48.562;8.910;2022-08-24T01:33:35;14.90;1.00
15044;DHT22;7619;48.562;8.910;2022-08-24T01:36:08;14.80;1.00
15044;DHT22;7619;48.562;8.910;2022-08-24T01:38:36;14.80;1.00
15044;DHT22;7619;48.562;8.910;2022-08-24T01:41:06;14.80;1.00
15044;DHT22;7619;48.562;8.910;2022-08-24T01:51:14;14.70;1.00
15044;DHT22;7619;48.562;8.910;2022-08-24T01:53:43;14.50;1.00
15044;DHT22;7619;48.562;8.910;2022-08-24T01:56:12;14.20;1.00
15044;DHT22;7619;48.562;8.910;2022-08-24T02:01:11;14.10;12.30
15044;DHT22;7619;48.562;8.910;2022-08-24T02:03:41;14.10;99.90
15044;DHT22;7619;48.562;8.910;2022-08-24T02:06:10;14.10;99.90
15044;DHT22;7619;48.562;8.910;2022-08-24T02:08:39;14.10;99.90
15044;DHT22;7619;48.562;8.910;2022-08-24T02:11:09;14.20;99.90
15044;DHT22;7619;48.562;8.910;2022-08-24T02:13:39;14.20;1.00
15044;DHT22;7619;48.562;8.910;2022-08-24T02:16:09;14.20;1.00
15044;DHT22;7619;48.562;8.910;2022-08-24T02:21:07;14.20;1.00
15044;DHT22;7619;48.562;8.910;2022-08-24T02:23:37;14.20;1.00
15044;DHT22;7619;48.562;8.910;2022-08-24T02:26:08;14.20;1.00
15044;DHT22;7619;48.562;8.910;2022-08-24T02:28:38;14.20;1.00
15044;DHT22;7619;48.562;8.910;2022-08-24T02:33:37;13.90;1.00
15044;DHT22;7619;48.562;8.910;2022-08-24T02:38:35;13.90;18.40
15044;DHT22;7619;48.562;8.910;2022-08-24T02:41:04;13.90;1.00
15044;DHT22;7619;48.562;8.910;2022-08-24T02:43:34;13.80;99.90
15044;DHT22;7619;48.562;8.910;2022-08-24T02:46:02;13.90;99.90
15044;DHT22;7619;48.562;8.910;2022-08-24T02:50:59;13.70;99.90
15044;DHT22;7619;48.562;8.910;2022-08-24T02:53:28;13.70;99.90
15044;DHT22;7619;48.562;8.910;2022-08-24T02:55:57;13.80;1.00
15044;DHT22;7619;48.562;8.910;2022-08-24T02:58:26;13.70;1.00
15044;DHT22;7619;48.562;8.910;2022-08-24T03:00:55;13.60;1.00
15044;DHT22;7619;48.562;8.910;2022-08-24T03:05:52;13.60;1.00
15044;DHT22;7619;48.562;8.910;2022-08-24T03:08:21;13.60;67.30
15044;DHT22;7619;48.562;8.910;2022-08-24T03:13:18;13.50;99.90
15044;DHT22;7619;48.562;8.910;2022-08-24T03:15:47;13.40;1.00
15044;DHT22;7619;48.562;8.910;2022-08-24T03:18:16;13.30;1.00
15044;DHT22;7619;48.562;8.910;2022-08-24T03:20:46;13.20;1.00
15044;DHT22;7619;48.562;8.910;2022-08-24T03:23:16;13.10;99.90
15044;DHT22;7619;48.562;8.910;2022-08-24T03:28:13;13.10;99.90
15044;DHT22;7619;48.562;8.910;2022-08-24T03:30:43;13.00;99.90
15044;DHT22;7619;48.562;8.910;2022-08-24T03:33:12;13.10;1.00
15044;DHT22;7619;48.562;8.910;2022-08-24T03:35:40;13.10;1.00
15044;DHT22;7619;48.562;8.910;2022-08-24T03:40:39;13.20;99.90
15044;DHT22;7619;48.562;8.910;2022-08-24T03:43:09;13.20;1.00
15044;DHT22;7619;48.562;8.910;2022-08-24T03:45:39;13.30;19.40
15044;DHT22;7619;48.562;8.910;2022-08-24T03:48:10;13.40;1.00
15044;DHT22;7619;48.562;8.910;2022-08-24T03:50:40;13.40;99.90
15044;DHT22;7619;48.562;8.910;2022-08-24T03:53:12;13.30;1.00
15044;DHT22;7619;48.562;8.910;2022-08-24T03:55:42;13.20;99.90
15044;DHT22;7619;48.562;8.910;2022-08-24T03:58:11;13.20;1.00
15044;DHT22;7619;48.562;8.910;2022-08-24T04:00:40;13.20;99.90
15044;DHT22;7619;48.562;8.910;2022-08-24T04:03:10;13.20;1.00
15044;DHT22;7619;48.562;8.910;2022-08-24T04:05:39;13.20;1.00
15044;DHT22;7619;48.562;8.910;2022-08-24T04:08:09;13.20;48.50
15044;DHT22;7619;48.562;8.910;2022-08-24T04:10:43;13.20;99.90
15044;DHT22;7619;48.562;8.910;2022-08-24T04:13:12;13.20;99.90
15044;DHT22;7619;48.562;8.910;2022-08-24T04:15:43;13.20;1.00
15044;DHT22;7619;48.562;8.910;2022-08-24T04:18:12;13.10;1.00
15044;DHT22;7619;48.562;8.910;2022-08-24T04:20:42;13.20;99.90
15044;DHT22;7619;48.562;8.910;2022-08-24T04:23:11;13.20;1.00
15044;DHT22;7619;48.562;8.910;2022-08-24T04:25:43;13.20;1.00
15044;DHT22;7619;48.562;8.910;2022-08-24T04:28:15;13.20;1.00
15044;DHT22;7619;48.562;8.910;2022-08-24T04:30:47;13.20;1.00
15044;DHT22;7619;48.562;8.910;2022-08-24T04:33:18;13.30;99.90
15044;DHT22;7619;48.562;8.910;2022-08-24T04:35:48;13.20;99.90
15044;DHT22;7619;48.562;8.910;2022-08-24T04:38:18;13.20;1.00
15044;DHT22;7619;48.562;8.910;2022-08-24T04:40:47;13.20;99.90
15044;DHT22;7619;48.562;8.910;2022-08-24T04:43:17;13.20;99.90
15044;DHT22;7619;48.562;8.910;2022-08-24T04:45:47;13.20;1.00
15044;DHT22;7619;48.562;8.910;2022-08-24T04:48:17;13.20;1.00
15044;DHT22;7619;48.562;8.910;2022-08-24T04:50:46;13.30;1.00
15044;DHT22;7619;48.562;8.910;2022-08-24T04:53:15;13.40;1.00
15044;DHT22;7619;48.562;8.910;2022-08-24T04:55:46;13.40;32.40
15044;DHT22;7619;48.562;8.910;2022-08-24T04:58:17;13.50;1.00
15044;DHT22;7619;48.562;8.910;2022-08-24T05:10:55;14.20;1.00
15044;DHT22;7619;48.562;8.910;2022-08-24T05:13:24;14.70;99.90
15044;DHT22;7619;48.562;8.910;2022-08-24T05:15:53;15.60;1.00
15044;DHT22;7619;48.562;8.910;2022-08-24T05:18:22;16.20;1.00
15044;DHT22;7619;48.562;8.910;2022-08-24T05:20:51;17.20;99.90
15044;DHT22;7619;48.562;8.910;2022-08-24T05:23:20;17.80;1.00
15044;DHT22;7619;48.562;8.910;2022-08-24T05:25:49;18.30;1.00
15044;DHT22;7619;48.562;8.910;2022-08-24T05:30:46;19.00;1.00
15044;DHT22;7619;48.562;8.910;2022-08-24T05:33:15;19.40;1.00
15044;DHT22;7619;48.562;8.910;2022-08-24T05:35:43;19.70;99.90
15044;DHT22;7619;48.562;8.910;2022-08-24T05:38:12;20.20;99.90
15044;DHT22;7619;48.562;8.910;2022-08-24T05:40:41;20.40;99.90
15044;DHT22;7619;48.562;8.910;2022-08-24T05:45:41;22.00;1.00
15044;DHT22;7619;48.562;8.910;2022-08-24T05:55:52;21.50;99.90
15044;DHT22;7619;48.562;8.910;2022-08-24T05:58:21;21.40;99.90
15044;DHT22;7619;48.562;8.910;2022-08-24T06:00:50;21.10;99.90
15044;DHT22;7619;48.562;8.910;2022-08-24T06:03:19;21.20;99.90
15044;DHT22;7619;48.562;8.910;2022-08-24T06:08:16;20.50;99.90
15044;DHT22;7619;48.562;8.910;2022-08-24T06:10:46;20.50;99.90
15044;DHT22;7619;48.562;8.910;2022-08-24T06:13:16;21.00;99.90
15044;DHT22;7619;48.562;8.910;2022-08-24T06:15:45;21.60;99.90
15044;DHT22;7619;48.562;8.910;2022-08-24T06:18:14;21.90;99.90
15044;DHT22;7619;48.562;8.910;2022-08-24T06:20:43;21.80;99.90
15044;DHT22;7619;48.562;8.910;2022-08-24T06:23:12;21.60;99.90
15044;DHT22;7619;48.562;8.910;2022-08-24T06:25:41;21.60;99.90
15044;DHT22;7619;48.562;8.910;2022-08-24T06:28:28;21.80;99.90
15044;DHT22;7619;48.562;8.910;2022-08-24T06:31:03;22.00;99.90
15044;DHT22;7619;48.562;8.910;2022-08-24T06:33:33;22.80;99.90
15044;DHT22;7619;48.562;8.910;2022-08-24T06:36:03;23.40;99.90
15044;DHT22;7619;48.562;8.910;2022-08-24T06:41:01;24.70;99.90
15044;DHT22;7619;48.562;8.910;2022-08-24T06:45:58;25.30;99.90
15044;DHT22;7619;48.562;8.910;2022-08-24T06:48:27;25.10;99.90
15044;DHT22;7619;48.562;8.910;2022-08-24T06:50:58;25.10;99.90
15044;DHT22;7619;48.562;8.910;2022-08-24T06:53:27;25.00;99.90
15044;DHT22;7619;48.562;8.910;2022-08-24T06:55:57;25.50;99.90
15044;DHT22;7619;48.562;8.910;2022-08-24T06:58:27;25.40;99.90
15044;DHT22;7619;48.562;8.910;2022-08-24T07:00:57;25.80;99.90
15044;DHT22;7619;48.562;8.910;2022-08-24T07:03:26;26.40;99.90
15044;DHT22;7619;48.562;8.910;2022-08-24T07:05:56;26.30;99.90
15044;DHT22;7619;48.562;8.910;2022-08-24T07:08:26;26.50;99.90
15044;DHT22;7619;48.562;8.910;2022-08-24T07:10:54;26.80;99.90
15044;DHT22;7619;48.562;8.910;2022-08-24T07:15:52;26.30;99.90
15044;DHT22;7619;48.562;8.910;2022-08-24T07:18:22;26.60;99.90
15044;DHT22;7619;48.562;8.910;2022-08-24T07:20:51;26.80;99.90
15044;DHT22;7619;48.562;8.910;2022-08-24T07:23:20;27.10;99.90
15044;DHT22;7619;48.562;8.910;2022-08-24T07:25:49;27.10;99.90
15044;DHT22;7619;48.562;8.910;2022-08-24T07:28:18;27.70;99.90
15044;DHT22;7619;48.562;8.910;2022-08-24T07:30:47;27.60;99.90
15044;DHT22;7619;48.562;8.910;2022-08-24T07:33:16;27.80;99.90
15044;DHT22;7619;48.562;8.910;2022-08-24T07:35:45;28.20;99.90
15044;DHT22;7619;48.562;8.910;2022-08-24T07:38:14;28.20;99.90
15044;DHT22;7619;48.562;8.910;2022-08-24T07:40:45;28.30;99.90
15044;DHT22;7619;48.562;8.910;2022-08-24T07:43:15;28.30;99.90
15044;DHT22;7619;48.562;8.910;2022-08-24T07:45:45;28.30;99.90
15044;DHT22;7619;48.562;8.910;2022-08-24T07:50:42;28.10;99.90
15044;DHT22;7619;48.562;8.910;2022-08-24T07:53:12;28.20;99.50
15044;DHT22;7619;48.562;8.910;2022-08-24T07:55:41;28.40;98.90
15044;DHT22;7619;48.562;8.910;2022-08-24T08:03:26;29.90;96.80
15044;DHT22;7619;48.562;8.910;2022-08-24T08:05:57;30.30;95.30
15044;DHT22;7619;48.562;8.910;2022-08-24T08:08:26;29.70;94.50
15044;DHT22;7619;48.562;8.910;2022-08-24T08:10:55;29.80;93.70
15044;DHT22;7619;48.562;8.910;2022-08-24T08:13:24;29.60;93.40
15044;DHT22;7619;48.562;8.910;2022-08-24T08:15:53;29.60;92.90
15044;DHT22;7619;48.562;8.910;2022-08-24T08:18:23;30.20;92.70
15044;DHT22;7619;48.562;8.910;2022-08-24T08:20:52;30.50;92.60
15044;DHT22;7619;48.562;8.910;2022-08-24T08:23:21;30.20;91.20
15044;DHT22;7619;48.562;8.910;2022-08-24T08:26:12;30.60;91.40
15044;DHT22;7619;48.562;8.910;2022-08-24T08:28:42;29.80;90.10
15044;DHT22;7619;48.562;8.910;2022-08-24T08:31:11;30.00;90.50
15044;DHT22;7619;48.562;8.910;2022-08-24T08:33:40;30.40;90.20
15044;DHT22;7619;48.562;8.910;2022-08-24T08:36:11;30.60;89.90
15044;DHT22;7619;48.562;8.910;2022-08-24T08:38:42;30.80;87.80
15044;DHT22;7619;48.562;8.910;2022-08-24T08:44:12;30.90;86.50
15044;DHT22;7619;48.562;8.910;2022-08-24T08:46:48;31.20;85.00
15044;DHT22;7619;48.562;8.910;2022-08-24T08:49:32;31.50;83.50
15044;DHT22;7619;48.562;8.910;2022-08-24T08:52:14;31.80;83.40
15044;DHT22;7619;48.562;8.910;2022-08-24T08:54:51;31.80;83.10
15044;DHT22;7619;48.562;8.910;2022-08-24T08:57:34;31.80;82.90
15044;DHT22;7619;48.562;8.910;2022-08-24T09:00:09;32.30;79.00
15044;DHT22;7619;48.562;8.910;2022-08-24T09:02:51;32.80;79.20
15044;DHT22;7619;48.562;8.910;2022-08-24T09:08:58;33.00;75.20
15044;DHT22;7619;48.562;8.910;2022-08-24T09:11:32;32.10;74.00
15044;DHT22;7619;48.562;8.910;2022-08-24T09:14:12;31.70;74.50
15044;DHT22;7619;48.562;8.910;2022-08-24T09:16:55;31.50;74.70
15044;DHT22;7619;48.562;8.910;2022-08-24T09:19:40;32.10;72.40
15044;DHT22;7619;48.562;8.910;2022-08-24T09:22:12;32.40;73.30
15044;DHT22;7619;48.562;8.910;2022-08-24T09:25:01;31.70;71.10
15044;DHT22;7619;48.562;8.910;2022-08-24T09:27:36;31.80;69.80
15044;DHT22;7619;48.562;8.910;2022-08-24T09:32:56;29.80;71.00
15044;DHT22;7619;48.562;8.910;2022-08-24T09:35:32;29.90;70.00
15044;DHT22;7619;48.562;8.910;2022-08-24T09:38:06;30.00;69.80
15044;DHT22;7619;48.562;8.910;2022-08-24T09:40:41;29.50;70.20
15044;DHT22;7619;48.562;8.910;2022-08-24T09:46:48;30.10;68.70
15044;DHT22;7619;48.562;8.910;2022-08-24T09:55:45;29.70;67.40
15044;DHT22;7619;48.562;8.910;2022-08-24T09:58:19;29.80;67.60
15044;DHT22;7619;48.562;8.910;2022-08-24T10:00:52;29.90;66.30
15044;DHT22;7619;48.562;8.910;2022-08-24T10:03:27;29.90;66.00
15044;DHT22;7619;48.562;8.910;2022-08-24T10:06:11;29.60;66.60
15044;DHT22;7619;48.562;8.910;2022-08-24T10:09:00;29.90;65.90
15044;DHT22;7619;48.562;8.910;2022-08-24T10:11:35;30.00;66.40
15044;DHT22;7619;48.562;8.910;2022-08-24T10:14:08;30.20;64.70
15044;DHT22;7619;48.562;8.910;2022-08-24T10:16:42;30.00;65.00
15044;DHT22;7619;48.562;8.910;2022-08-24T10:19:23;30.20;64.70
15044;DHT22;7619;48.562;8.910;2022-08-24T10:22:04;30.60;62.90
15044;DHT22;7619;48.562;8.910;2022-08-24T10:24:45;31.20;61.90
15044;DHT22;7619;48.562;8.910;2022-08-24T10:35:32;30.70;60.10
15044;DHT22;7619;48.562;8.910;2022-08-24T10:38:23;30.40;60.40
15044;DHT22;7619;48.562;8.910;2022-08-24T10:44:14;30.70;60.20
15044;DHT22;7619;48.562;8.910;2022-08-24T10:46:50;30.50;59.30
15044;DHT22;7619;48.562;8.910;2022-08-24T10:54:40;30.90;57.50
15044;DHT22;7619;48.562;8.910;2022-08-24T10:57:13;30.60;58.10
15044;DHT22;7619;48.562;8.910;2022-08-24T10:59:47;30.60;58.40
15044;DHT22;7619;48.562;8.910;2022-08-24T11:02:31;30.70;57.80
15044;DHT22;7619;48.562;8.910;2022-08-24T11:05:03;30.50;57.60
15044;DHT22;7619;48.562;8.910;2022-08-24T11:07:33;30.30;57.60
15044;DHT22;7619;48.562;8.910;2022-08-24T11:10:05;29.90;58.00
15044;DHT22;7619;48.562;8.910;2022-08-24T11:12:39;30.30;57.30
15044;DHT22;7619;48.562;8.910;2022-08-24T11:15:10;30.60;58.00
15044;DHT22;7619;48.562;8.910;2022-08-24T11:17:42;30.70;56.50
15044;DHT22;7619;48.562;8.910;2022-08-24T11:20:23;30.20;57.10
15044;DHT22;7619;48.562;8.910;2022-08-24T11:25:28;30.20;57.00
15044;DHT22;7619;48.562;8.910;2022-08-24T11:28:03;30.40;57.00
15044;DHT22;7619;48.562;8.910;2022-08-24T11:30:34;30.10;57.10
15044;DHT22;7619;48.562;8.910;2022-08-24T11:33:05;29.90;58.00
15044;DHT22;7619;48.562;8.910;2022-08-24T11:35:37;30.30;57.80
15044;DHT22;7619;48.562;8.910;2022-08-24T11:38:13;30.50;57.40
15044;DHT22;7619;48.562;8.910;2022-08-24T11:40:42;30.90;56.50
15044;DHT22;7619;48.562;8.910;2022-08-24T11:43:25;30.50;56.30
15044;DHT22;7619;48.562;8.910;2022-08-24T11:46:02;30.40;56.80
15044;DHT22;7619;48.562;8.910;2022-08-24T11:48:38;30.40;56.20
15044;DHT22;7619;48.562;8.910;2022-08-24T11:51:11;30.20;56.30
15044;DHT22;7619;48.562;8.910;2022-08-24T11:53:44;30.30;57.00
15044;DHT22;7619;48.562;8.910;2022-08-24T11:56:17;30.20;57.10
15044;DHT22;7619;48.562;8.910;2022-08-24T11:58:51;30.30;57.40
15044;DHT22;7619;48.562;8.910;2022-08-24T12:01:26;30.50;56.80
15044;DHT22;7619;48.562;8.910;2022-08-24T12:04:08;30.50;56.70
15044;DHT22;7619;48.562;8.910;2022-08-24T12:06:43;30.60;56.40
15044;DHT22;7619;48.562;8.910;2022-08-24T12:09:18;30.50;55.60
15044;DHT22;7619;48.562;8.910;2022-08-24T12:11:50;30.50;56.60
15044;DHT22;7619;48.562;8.910;2022-08-24T12:14:24;30.80;55.20
15044;DHT22;7619;48.562;8.910;2022-08-24T12:16:55;30.70;56.50
15044;DHT22;7619;48.562;8.910;2022-08-24T12:19:26;30.60;56.00
15044;DHT22;7619;48.562;8.910;2022-08-24T12:24:30;30.80;54.70
15044;DHT22;7619;48.562;8.910;2022-08-24T12:27:03;30.60;55.60
15044;DHT22;7619;48.562;8.910;2022-08-24T12:29:36;30.40;55.00
15044;DHT22;7619;48.562;8.910;2022-08-24T12:32:07;30.70;55.20
15044;DHT22;7619;48.562;8.910;2022-08-24T12:34:43;31.00;53.40
15044;DHT22;7619;48.562;8.910;2022-08-24T12:37:14;31.00;53.90
15044;DHT22;7619;48.562;8.910;2022-08-24T12:39:47;31.10;54.40
15044;DHT22;7619;48.562;8.910;2022-08-24T12:42:19;30.90;54.00
15044;DHT22;7619;48.562;8.910;2022-08-24T12:44:52;30.90;54.30
15044;DHT22;7619;48.562;8.910;2022-08-24T12:47:24;30.90;54.70
15044;DHT22;7619;48.562;8.910;2022-08-24T12:49:58;30.80;54.50
15044;DHT22;7619;48.562;8.910;2022-08-24T12:52:39;31.00;54.10
15044;DHT22;7619;48.562;8.910;2022-08-24T12:55:16;31.10;53.20
15044;DHT22;7619;48.562;8.910;2022-08-24T12:57:50;31.40;53.30
15044;DHT22;7619;48.562;8.910;2022-08-24T13:00:23;31.40;52.70
15044;DHT22;7619;48.562;8.910;2022-08-24T13:02:56;31.60;51.80
15044;DHT22;7619;48.562;8.910;2022-08-24T13:05:38;32.00;51.80
15044;DHT22;7619;48.562;8.910;2022-08-24T13:08:12;31.90;51.50
15044;DHT22;7619;48.562;8.910;2022-08-24T13:10:50;32.20;50.60
15044;DHT22;7619;48.562;8.910;2022-08-24T13:13:20;32.20;51.50
15044;DHT22;7619;48.562;8.910;2022-08-24T13:16:00;31.90;50.60
15044;DHT22;7619;48.562;8.910;2022-08-24T13:21:53;31.50;51.60
15044;DHT22;7619;48.562;8.910;2022-08-24T13:30:29;31.80;50.30
15044;DHT22;7619;48.562;8.910;2022-08-24T13:33:06;31.60;50.70
15044;DHT22;7619;48.562;8.910;2022-08-24T13:35:53;31.40;49.90
15044;DHT22;7619;48.562;8.910;2022-08-24T13:38:45;31.40;50.80
15044;DHT22;7619;48.562;8.910;2022-08-24T13:41:21;32.10;50.00
15044;DHT22;7619;48.562;8.910;2022-08-24T13:43:55;32.20;49.70
15044;DHT22;7619;48.562;8.910;2022-08-24T13:46:31;32.20;49.70
15044;DHT22;7619;48.562;8.910;2022-08-24T13:51:34;31.80;49.30
15044;DHT22;7619;48.562;8.910;2022-08-24T13:54:11;32.10;48.80
15044;DHT22;7619;48.562;8.910;2022-08-24T13:56:53;32.60;48.90
15044;DHT22;7619;48.562;8.910;2022-08-24T13:59:33;32.50;48.20
15044;DHT22;7619;48.562;8.910;2022-08-24T14:02:03;32.20;48.30
15044;DHT22;7619;48.562;8.910;2022-08-24T14:04:40;32.20;47.60
15044;DHT22;7619;48.562;8.910;2022-08-24T14:07:13;32.00;48.20
15044;DHT22;7619;48.562;8.910;2022-08-24T14:09:47;31.60;48.50
15044;DHT22;7619;48.562;8.910;2022-08-24T14:12:35;31.60;48.60
15044;DHT22;7619;48.562;8.910;2022-08-24T14:15:18;32.30;48.80
15044;DHT22;7619;48.562;8.910;2022-08-24T14:17:49;32.20;49.40
15044;DHT22;7619;48.562;8.910;2022-08-24T14:23:48;31.90;47.80
15044;DHT22;7619;48.562;8.910;2022-08-24T14:26:50;32.00;48.10
15044;DHT22;7619;48.562;8.910;2022-08-24T14:29:33;31.60;47.80
15044;DHT22;7619;48.562;8.910;2022-08-24T14:34:58;31.10;48.00
15044;DHT22;7619;48.562;8.910;2022-08-24T14:37:32;31.30;48.70
15044;DHT22;7619;48.562;8.910;2022-08-24T14:40:06;31.20;47.70
15044;DHT22;7619;48.562;8.910;2022-08-24T14:42:35;31.80;47.60
15044;DHT22;7619;48.562;8.910;2022-08-24T14:45:08;31.70;47.90
15044;DHT22;7619;48.562;8.910;2022-08-24T14:47:45;31.60;47.70
15044;DHT22;7619;48.562;8.910;2022-08-24T15:01:27;31.50;47.50
15044;DHT22;7619;48.562;8.910;2022-08-24T15:04:13;31.40;48.00
15044;DHT22;7619;48.562;8.910;2022-08-24T15:06:46;31.70;47.30
15044;DHT22;7619;48.562;8.910;2022-08-24T15:09:21;31.50;48.20
15044;DHT22;7619;48.562;8.910;2022-08-24T15:11:53;31.30;49.00
15044;DHT22;7619;48.562;8.910;2022-08-24T15:14:27;31.20;48.70
15044;DHT22;7619;48.562;8.910;2022-08-24T15:17:04;30.90;49.50
15044;DHT22;7619;48.562;8.910;2022-08-24T15:19:38;31.10;48.50
15044;DHT22;7619;48.562;8.910;2022-08-24T15:24:38;31.40;49.60
15044;DHT22;7619;48.562;8.910;2022-08-24T15:27:17;31.60;48.80
15044;DHT22;7619;48.562;8.910;2022-08-24T15:29:50;31.90;48.00
15044;DHT22;7619;48.562;8.910;2022-08-24T15:32:21;31.90;49.50
15044;DHT22;7619;48.562;8.910;2022-08-24T15:37:30;31.50;49.20
15044;DHT22;7619;48.562;8.910;2022-08-24T15:40:00;31.30;49.80
15044;DHT22;7619;48.562;8.910;2022-08-24T15:42:32;31.00;50.70
15044;DHT22;7619;48.562;8.910;2022-08-24T15:45:04;30.40;51.20
15044;DHT22;7619;48.562;8.910;2022-08-24T15:47:35;30.20;53.10
15044;DHT22;7619;48.562;8.910;2022-08-24T15:50:08;30.40;53.40
15044;DHT22;7619;48.562;8.910;2022-08-24T15:52:47;30.10;53.70
15044;DHT22;7619;48.562;8.910;2022-08-24T15:55:35;30.00;52.20
15044;DHT22;7619;48.562;8.910;2022-08-24T16:01:22;30.00;54.90
15044;DHT22;7619;48.562;8.910;2022-08-24T16:04:12;29.80;55.00
15044;DHT22;7619;48.562;8.910;2022-08-24T16:06:43;29.70;54.60
15044;DHT22;7619;48.562;8.910;2022-08-24T16:09:31;29.20;56.40
15044;DHT22;7619;48.562;8.910;2022-08-24T16:19:51;28.90;55.40
15044;DHT22;7619;48.562;8.910;2022-08-24T16:22:31;28.70;56.70
15044;DHT22;7619;48.562;8.910;2022-08-24T16:25:15;28.60;56.50
15044;DHT22;7619;48.562;8.910;2022-08-24T16:27:58;28.60;56.80
15044;DHT22;7619;48.562;8.910;2022-08-24T16:33:03;28.40;57.40
15044;DHT22;7619;48.562;8.910;2022-08-24T16:35:33;28.30;56.90
15044;DHT22;7619;48.562;8.910;2022-08-24T16:38:02;28.30;57.40
15044;DHT22;7619;48.562;8.910;2022-08-24T16:40:31;28.20;56.50
15044;DHT22;7619;48.562;8.910;2022-08-24T16:43:01;28.10;52.90
15044;DHT22;7619;48.562;8.910;2022-08-24T16:47:58;28.00;50.10
15044;DHT22;7619;48.562;8.910;2022-08-24T16:50:27;28.00;49.30
15044;DHT22;7619;48.562;8.910;2022-08-24T16:52:56;28.00;49.60
15044;DHT22;7619;48.562;8.910;2022-08-24T16:55:26;27.90;46.90
15044;DHT22;7619;48.562;8.910;2022-08-24T16:57:55;27.80;50.20
15044;DHT22;7619;48.562;8.910;2022-08-24T17:00:24;27.80;52.40
15044;DHT22;7619;48.562;8.910;2022-08-24T17:02:54;27.70;50.70
15044;DHT22;7619;48.562;8.910;2022-08-24T17:05:23;27.70;52.20
15044;DHT22;7619;48.562;8.910;2022-08-24T17:07:52;27.70;52.00
15044;DHT22;7619;48.562;8.910;2022-08-24T17:10:21;27.60;50.10
15044;DHT22;7619;48.562;8.910;2022-08-24T17:12:51;27.60;49.40
15044;DHT22;7619;48.562;8.910;2022-08-24T17:15:20;27.50;46.20
15044;DHT22;7619;48.562;8.910;2022-08-24T17:17:53;27.40;47.10
15044;DHT22;7619;48.562;8.910;2022-08-24T17:20:22;27.30;45.40
15044;DHT22;7619;48.562;8.910;2022-08-24T17:22:52;27.20;43.20
15044;DHT22;7619;48.562;8.910;2022-08-24T17:27:49;27.10;41.30
15044;DHT22;7619;48.562;8.910;2022-08-24T17:30:20;27.00;40.00
15044;DHT22;7619;48.562;8.910;2022-08-24T17:32:50;26.90;39.10
15044;DHT22;7619;48.562;8.910;2022-08-24T17:35:19;26.90;36.40
15044;DHT22;7619;48.562;8.910;2022-08-24T17:37:49;26.90;40.80
15044;DHT22;7619;48.562;8.910;2022-08-24T17:40:21;26.70;38.50
15044;DHT22;7619;48.562;8.910;2022-08-24T17:42:51;26.70;35.00
15044;DHT22;7619;48.562;8.910;2022-08-24T17:45:20;26.60;36.60
15044;DHT22;7619;48.562;8.910;2022-08-24T17:47:50;26.50;35.80
15044;DHT22;7619;48.562;8.910;2022-08-24T17:50:21;26.50;35.80
15044;DHT22;7619;48.562;8.910;2022-08-24T17:52:50;26.40;34.40
15044;DHT22;7619;48.562;8.910;2022-08-24T17:55:20;26.40;34.30
15044;DHT22;7619;48.562;8.910;2022-08-24T17:57:48;26.30;33.90
15044;DHT22;7619;48.562;8.910;2022-08-24T18:00:18;26.30;32.50
15044;DHT22;7619;48.562;8.910;2022-08-24T18:02:47;26.20;32.10
15044;DHT22;7619;48.562;8.910;2022-08-24T18:05:16;26.20;29.40
15044;DHT22;7619;48.562;8.910;2022-08-24T18:07:48;26.00;28.50
15044;DHT22;7619;48.562;8.910;2022-08-24T18:10:19;26.00;26.80
15044;DHT22;7619;48.562;8.910;2022-08-24T18:15:17;25.70;23.40
15044;DHT22;7619;48.562;8.910;2022-08-24T18:17:48;25.60;20.30
15044;DHT22;7619;48.562;8.910;2022-08-24T18:20:21;25.50;17.50
15044;DHT22;7619;48.562;8.910;2022-08-24T18:22:52;25.50;14.30
15044;DHT22;7619;48.562;8.910;2022-08-24T18:25:21;25.40;14.50
15044;DHT22;7619;48.562;8.910;2022-08-24T18:27:52;25.30;13.50
15044;DHT22;7619;48.562;8.910;2022-08-24T18:30:25;25.30;11.90
15044;DHT22;7619;48.562;8.910;2022-08-24T18:32:55;25.20;8.90
15044;DHT22;7619;48.562;8.910;2022-08-24T18:35:24;25.10;6.70
15044;DHT22;7619;48.562;8.910;2022-08-24T18:37:53;25.00;4.80
15044;DHT22;7619;48.562;8.910;2022-08-24T18:40:21;24.90;3.60
15044;DHT22;7619;48.562;8.910;2022-08-24T18:42:52;24.80;2.40
15044;DHT22;7619;48.562;8.910;2022-08-24T18:50:34;24.40;1.00
15044;DHT22;7619;48.562;8.910;2022-08-24T18:53:03;24.40;1.00
15044;DHT22;7619;48.562;8.910;2022-08-24T18:58:00;24.30;1.00
15044;DHT22;7619;48.562;8.910;2022-08-24T19:12:54;23.90;1.00
15044;DHT22;7619;48.562;8.910;2022-08-24T19:17:51;23.90;1.00
15044;DHT22;7619;48.562;8.910;2022-08-24T19:20:23;23.70;1.00
15044;DHT22;7619;48.562;8.910;2022-08-24T19:22:52;23.50;1.00
15044;DHT22;7619;48.562;8.910;2022-08-24T19:25:23;23.50;1.00
15044;DHT22;7619;48.562;8.910;2022-08-24T19:27:54;23.40;1.00
15044;DHT22;7619;48.562;8.910;2022-08-24T19:30:23;23.40;1.00
15044;DHT22;7619;48.562;8.910;2022-08-24T19:32:54;23.40;1.00
15044;DHT22;7619;48.562;8.910;2022-08-24T19:35:23;23.30;1.00
15044;DHT22;7619;48.562;8.910;2022-08-24T19:37:52;23.20;1.00
15044;DHT22;7619;48.562;8.910;2022-08-24T19:40:21;23.00;1.00
15044;DHT22;7619;48.562;8.910;2022-08-24T19:42:50;23.00;1.00
15044;DHT22;7619;48.562;8.910;2022-08-24T19:45:22;23.10;1.00
15044;DHT22;7619;48.562;8.910;2022-08-24T19:48:09;23.00;1.00
15044;DHT22;7619;48.562;8.910;2022-08-24T19:50:38;22.90;1.00
15044;DHT22;7619;48.562;8.910;2022-08-24T19:53:08;22.80;1.00
15044;DHT22;7619;48.562;8.910;2022-08-24T19:55:37;22.70;1.00